sensor_id;sensor_type;location;lat;lon;timestamp;pressure;altitude;pressure_sealevel;temperature;humidity
66495;BME280;53319;51.982;5.916;2022-07-22T00:00:09;102038.28;;;21.25;100.00
66495;BME280;53319;51.982;5.916;2022-07-22T00:02:38;102040.28;;;20.83;100.00
66495;BME280;53319;51.982;5.916;2022-07-22T00:05:08;102038.56;;;21.33;100.00
66495;BME280;53319;51.982;5.916;2022-07-22T00:07:40;102044.31;;;21.40;100.00
66495;BME280;53319;51.982;5.916;2022-07-22T00:10:09;102041.34;;;21.32;100.00
66495;BME280;53319;51.982;5.916;2022-07-22T00:12:39;102047.94;;;21.65;100.00
66495;BME280;53319;51.982;5.916;2022-07-22T00:15:09;102042.97;;;21.84;100.00
66495;BME280;53319;51.982;5.916;2022-07-22T00:17:38;102045.41;;;21.87;100.00
66495;BME280;53319;51.982;5.916;2022-07-22T00:20:08;102044.34;;;21.90;100.00
66495;BME280;53319;51.982;5.916;2022-07-22T00:22:40;102043.59;;;21.88;100.00
66495;BME280;53319;51.982;5.916;2022-07-22T00:25:09;102043.28;;;21.92;100.00
66495;BME280;53319;51.982;5.916;2022-07-22T00:27:39;102040.59;;;21.92;100.00
66495;BME280;53319;51.982;5.916;2022-07-22T00:30:09;102048.31;;;21.84;100.00
66495;BME280;53319;51.982;5.916;2022-07-22T00:32:38;102043.03;;;21.46;100.00
66495;BME280;53319;51.982;5.916;2022-07-22T00:35:07;102035.28;;;21.17;100.00
66495;BME280;53319;51.982;5.916;2022-07-22T00:37:36;102029.75;;;21.07;100.00
66495;BME280;53319;51.982;5.916;2022-07-22T00:40:09;102035.72;;;20.85;100.00
66495;BME280;53319;51.982;5.916;2022-07-22T00:42:38;102037.19;;;21.27;100.00
66495;BME280;53319;51.982;5.916;2022-07-22T00:45:08;102034.59;;;21.39;100.00
66495;BME280;53319;51.982;5.916;2022-07-22T00:47:37;102026.97;;;21.21;100.00
66495;BME280;53319;51.982;5.916;2022-07-22T00:50:07;102030.06;;;21.28;100.00
66495;BME280;53319;51.982;5.916;2022-07-22T00:52:36;102025.22;;;21.46;100.00
66495;BME280;53319;51.982;5.916;2022-07-22T00:55:08;102026.69;;;21.63;100.00
66495;BME280;53319;51.982;5.916;2022-07-22T00:57:37;102025.53;;;21.67;100.00
66495;BME280;53319;51.982;5.916;2022-07-22T01:00:09;102023.78;;;21.79;100.00
66495;BME280;53319;51.982;5.916;2022-07-22T01:02:39;102023.78;;;21.79;100.00
66495;BME280;53319;51.982;5.916;2022-07-22T01:05:08;102024.88;;;21.76;100.00
66495;BME280;53319;51.982;5.916;2022-07-22T01:07:38;102026.78;;;21.74;100.00
66495;BME280;53319;51.982;5.916;2022-07-22T01:10:10;102020.69;;;21.85;100.00
66495;BME280;53319;51.982;5.916;2022-07-22T01:12:39;102019.50;;;21.89;100.00
66495;BME280;53319;51.982;5.916;2022-07-22T01:15:10;102016.97;;;21.99;100.00
66495;BME280;53319;51.982;5.916;2022-07-22T01:17:39;102023.47;;;21.84;100.00
66495;BME280;53319;51.982;5.916;2022-07-22T01:20:11;102014.50;;;21.72;100.00
66495;BME280;53319;51.982;5.916;2022-07-22T01:22:40;102017.47;;;21.80;100.00
66495;BME280;53319;51.982;5.916;2022-07-22T01:25:10;102018.28;;;21.69;100.00
66495;BME280;53319;51.982;5.916;2022-07-22T01:27:39;102022.03;;;21.54;100.00
66495;BME280;53319;51.982;5.916;2022-07-22T01:30:10;102031.81;;;21.66;100.00
66495;BME280;53319;51.982;5.916;2022-07-22T01:32:39;102027.59;;;21.25;100.00
66495;BME280;53319;51.982;5.916;2022-07-22T01:35:11;102019.88;;;21.59;100.00
66495;BME280;53319;51.982;5.916;2022-07-22T01:37:40;102023.81;;;21.66;100.00
66495;BME280;53319;51.982;5.916;2022-07-22T01:40:10;102026.06;;;21.72;100.00
66495;BME280;53319;51.982;5.916;2022-07-22T01:42:40;102028.56;;;21.87;100.00
66495;BME280;53319;51.982;5.916;2022-07-22T01:45:10;102033.59;;;21.78;100.00
66495;BME280;53319;51.982;5.916;2022-07-22T01:47:39;102026.06;;;21.72;100.00
66495;BME280;53319;51.982;5.916;2022-07-22T01:50:12;102028.50;;;21.75;100.00
66495;BME280;53319;51.982;5.916;2022-07-22T01:52:41;102031.72;;;21.55;100.00
66495;BME280;53319;51.982;5.916;2022-07-22T01:55:10;102026.22;;;21.19;100.00
66495;BME280;53319;51.982;5.916;2022-07-22T01:57:40;102022.53;;;21.46;100.00
66495;BME280;53319;51.982;5.916;2022-07-22T02:00:17;102018.75;;;21.12;100.00
66495;BME280;53319;51.982;5.916;2022-07-22T02:02:46;102013.63;;;21.08;100.00
66495;BME280;53319;51.982;5.916;2022-07-22T02:05:18;102018.34;;;20.92;100.00
66495;BME280;53319;51.982;5.916;2022-07-22T02:07:47;102020.56;;;21.24;100.00
66495;BME280;53319;51.982;5.916;2022-07-22T02:10:19;102025.44;;;21.30;100.00
66495;BME280;53319;51.982;5.916;2022-07-22T02:12:48;102011.38;;;21.28;100.00
66495;BME280;53319;51.982;5.916;2022-07-22T02:15:17;102011.50;;;21.26;100.00
66495;BME280;53319;51.982;5.916;2022-07-22T02:17:46;102013.59;;;21.34;100.00
66495;BME280;53319;51.982;5.916;2022-07-22T02:20:18;102003.25;;;21.55;100.00
66495;BME280;53319;51.982;5.916;2022-07-22T02:22:47;102008.94;;;21.25;100.00
66495;BME280;53319;51.982;5.916;2022-07-22T02:25:17;102007.88;;;21.15;100.00
66495;BME280;53319;51.982;5.916;2022-07-22T02:27:46;102003.72;;;21.36;100.00
66495;BME280;53319;51.982;5.916;2022-07-22T02:30:15;102007.63;;;21.43;100.00
66495;BME280;53319;51.982;5.916;2022-07-22T02:32:43;102004.63;;;21.61;100.00
66495;BME280;53319;51.982;5.916;2022-07-22T02:35:12;102007.09;;;21.51;100.00
66495;BME280;53319;51.982;5.916;2022-07-22T02:37:44;102007.56;;;21.19;100.00
66495;BME280;53319;51.982;5.916;2022-07-22T02:40:13;101997.63;;;21.34;100.00
66495;BME280;53319;51.982;5.916;2022-07-22T02:42:43;102003.16;;;21.44;100.00
66495;BME280;53319;51.982;5.916;2022-07-22T02:45:12;102000.38;;;21.33;100.00
66495;BME280;53319;51.982;5.916;2022-07-22T02:47:49;102003.63;;;20.99;100.00
66495;BME280;53319;51.982;5.916;2022-07-22T02:50:19;101997.13;;;21.03;100.00
66495;BME280;53319;51.982;5.916;2022-07-22T02:52:50;102000.75;;;21.15;100.00
66495;BME280;53319;51.982;5.916;2022-07-22T02:55:24;102001.81;;;21.13;100.00
66495;BME280;53319;51.982;5.916;2022-07-22T02:57:54;102000.06;;;21.24;100.00
66495;BME280;53319;51.982;5.916;2022-07-22T03:00:24;101998.09;;;21.02;100.00
66495;BME280;53319;51.982;5.916;2022-07-22T03:02:52;102000.63;;;21.17;100.00
66495;BME280;53319;51.982;5.916;2022-07-22T03:05:22;102004.59;;;21.11;100.00
66495;BME280;53319;51.982;5.916;2022-07-22T03:07:58;102006.56;;;21.33;100.00
66495;BME280;53319;51.982;5.916;2022-07-22T03:10:27;102003.38;;;21.54;100.00
66495;BME280;53319;51.982;5.916;2022-07-22T03:12:56;102005.75;;;21.07;100.00
66495;BME280;53319;51.982;5.916;2022-07-22T03:15:25;102005.19;;;21.15;100.00
66495;BME280;53319;51.982;5.916;2022-07-22T03:17:54;102011.06;;;21.33;100.00
66495;BME280;53319;51.982;5.916;2022-07-22T03:20:25;102008.72;;;21.54;100.00
66495;BME280;53319;51.982;5.916;2022-07-22T03:22:54;102006.03;;;21.54;100.00
66495;BME280;53319;51.982;5.916;2022-07-22T03:25:25;102001.75;;;21.64;100.00
66495;BME280;53319;51.982;5.916;2022-07-22T03:27:56;102008.91;;;21.64;100.00
66495;BME280;53319;51.982;5.916;2022-07-22T03:30:25;102014.66;;;21.44;100.00
66495;BME280;53319;51.982;5.916;2022-07-22T03:32:54;102022.66;;;21.44;100.00
66495;BME280;53319;51.982;5.916;2022-07-22T03:35:24;102031.00;;;21.53;100.00
66495;BME280;53319;51.982;5.916;2022-07-22T03:37:53;102022.03;;;21.41;100.00
66495;BME280;53319;51.982;5.916;2022-07-22T03:40:26;102029.50;;;21.36;100.00
66495;BME280;53319;51.982;5.916;2022-07-22T03:42:56;102020.78;;;21.21;100.00
66495;BME280;53319;51.982;5.916;2022-07-22T03:45:25;102016.25;;;21.47;100.00
66495;BME280;53319;51.982;5.916;2022-07-22T03:47:54;102010.94;;;21.60;100.00
66495;BME280;53319;51.982;5.916;2022-07-22T03:50:24;102011.66;;;21.75;100.00
66495;BME280;53319;51.982;5.916;2022-07-22T03:52:55;102014.09;;;21.78;100.00
66495;BME280;53319;51.982;5.916;2022-07-22T03:55:26;102012.59;;;21.74;100.00
66495;BME280;53319;51.982;5.916;2022-07-22T03:57:56;102002.03;;;21.72;100.00
66495;BME280;53319;51.982;5.916;2022-07-22T04:00:29;102002.59;;;21.65;100.00
66495;BME280;53319;51.982;5.916;2022-07-22T04:03:00;102004.41;;;21.64;100.00
66495;BME280;53319;51.982;5.916;2022-07-22T04:05:48;102003.47;;;21.65;100.00
66495;BME280;53319;51.982;5.916;2022-07-22T04:08:27;102008.56;;;21.68;100.00
66495;BME280;53319;51.982;5.916;2022-07-22T04:11:01;102001.25;;;21.83;100.00
66495;BME280;53319;51.982;5.916;2022-07-22T04:13:30;102002.22;;;21.82;100.00
66495;BME280;53319;51.982;5.916;2022-07-22T04:15:59;102008.91;;;21.88;100.00
66495;BME280;53319;51.982;5.916;2022-07-22T04:18:30;102004.66;;;21.85;100.00
66495;BME280;53319;51.982;5.916;2022-07-22T04:20:59;102016.28;;;21.84;100.00
66495;BME280;53319;51.982;5.916;2022-07-22T04:23:32;102003.19;;;21.81;100.00
66495;BME280;53319;51.982;5.916;2022-07-22T04:26:14;102009.34;;;21.82;100.00
66495;BME280;53319;51.982;5.916;2022-07-22T04:28:43;102011.50;;;21.89;100.00
66495;BME280;53319;51.982;5.916;2022-07-22T04:31:12;102010.22;;;21.82;100.00
66495;BME280;53319;51.982;5.916;2022-07-22T04:33:42;102010.31;;;21.81;100.00
66495;BME280;53319;51.982;5.916;2022-07-22T04:36:11;102010.44;;;21.79;100.00
66495;BME280;53319;51.982;5.916;2022-07-22T04:38:41;102007.56;;;21.82;100.00
66495;BME280;53319;51.982;5.916;2022-07-22T04:41:13;102003.84;;;21.72;100.00
66495;BME280;53319;51.982;5.916;2022-07-22T04:43:43;102007.16;;;21.75;100.00
66495;BME280;53319;51.982;5.916;2022-07-22T04:46:12;102011.00;;;21.71;100.00
66495;BME280;53319;51.982;5.916;2022-07-22T04:48:42;102003.13;;;21.70;100.00
66495;BME280;53319;51.982;5.916;2022-07-22T04:51:12;102010.59;;;21.65;100.00
66495;BME280;53319;51.982;5.916;2022-07-22T04:53:44;102007.59;;;21.69;100.00
66495;BME280;53319;51.982;5.916;2022-07-22T04:56:17;102014.94;;;21.78;100.00
66495;BME280;53319;51.982;5.916;2022-07-22T04:58:46;102013.22;;;21.77;100.00
66495;BME280;53319;51.982;5.916;2022-07-22T05:01:15;102007.50;;;21.71;100.00
66495;BME280;53319;51.982;5.916;2022-07-22T05:03:47;102007.59;;;21.69;100.00
66495;BME280;53319;51.982;5.916;2022-07-22T05:06:17;102009.53;;;21.41;100.00
66495;BME280;53319;51.982;5.916;2022-07-22T05:08:47;102007.22;;;21.37;100.00
66495;BME280;53319;51.982;5.916;2022-07-22T05:11:18;102004.63;;;21.48;100.00
66495;BME280;53319;51.982;5.916;2022-07-22T05:13:48;102005.28;;;21.52;100.00
66495;BME280;53319;51.982;5.916;2022-07-22T05:16:17;101999.00;;;21.53;100.00
66495;BME280;53319;51.982;5.916;2022-07-22T05:18:46;102003.50;;;21.52;100.00
66495;BME280;53319;51.982;5.916;2022-07-22T05:21:16;101995.56;;;21.64;100.00
66495;BME280;53319;51.982;5.916;2022-07-22T05:23:45;102001.22;;;21.59;100.00
66495;BME280;53319;51.982;5.916;2022-07-22T05:26:17;102000.47;;;21.57;100.00
66495;BME280;53319;51.982;5.916;2022-07-22T05:28:46;102002.69;;;21.63;100.00
66495;BME280;53319;51.982;5.916;2022-07-22T05:31:16;101993.97;;;21.61;100.00
66495;BME280;53319;51.982;5.916;2022-07-22T05:33:45;102002.59;;;21.65;100.00
66495;BME280;53319;51.982;5.916;2022-07-22T05:36:26;102003.00;;;21.71;100.00
66495;BME280;53319;51.982;5.916;2022-07-22T05:38:56;102006.00;;;21.67;100.00
66495;BME280;53319;51.982;5.916;2022-07-22T05:41:28;102003.13;;;21.70;100.00
66495;BME280;53319;51.982;5.916;2022-07-22T05:43:57;102012.53;;;21.63;100.00
66495;BME280;53319;51.982;5.916;2022-07-22T05:46:26;102014.00;;;21.67;100.00
66495;BME280;53319;51.982;5.916;2022-07-22T05:48:55;102021.56;;;21.73;100.00
66495;BME280;53319;51.982;5.916;2022-07-22T05:51:24;102010.03;;;21.72;100.00
66495;BME280;53319;51.982;5.916;2022-07-22T05:53:53;102022.19;;;21.76;100.00
66495;BME280;53319;51.982;5.916;2022-07-22T05:56:22;102013.91;;;21.68;100.00
66495;BME280;53319;51.982;5.916;2022-07-22T05:58:54;102015.59;;;21.69;100.00
66495;BME280;53319;51.982;5.916;2022-07-22T06:01:23;102018.78;;;21.74;100.00
66495;BME280;53319;51.982;5.916;2022-07-22T06:03:54;102021.28;;;21.89;100.00
66495;BME280;53319;51.982;5.916;2022-07-22T06:06:23;102025.47;;;21.80;100.00
66495;BME280;53319;51.982;5.916;2022-07-22T06:08:52;102023.38;;;21.72;100.00
66495;BME280;53319;51.982;5.916;2022-07-22T06:11:22;102024.88;;;21.76;100.00
66495;BME280;53319;51.982;5.916;2022-07-22T06:13:53;102017.06;;;21.73;100.00
66495;BME280;53319;51.982;5.916;2022-07-22T06:16:23;102020.34;;;21.90;100.00
66495;BME280;53319;51.982;5.916;2022-07-22T06:18:56;102022.88;;;21.91;100.00
66495;BME280;53319;51.982;5.916;2022-07-22T06:21:25;102022.16;;;21.89;100.00
66495;BME280;53319;51.982;5.916;2022-07-22T06:23:54;102028.75;;;21.97;100.00
66495;BME280;53319;51.982;5.916;2022-07-22T06:26:23;102028.75;;;21.97;100.00
66495;BME280;53319;51.982;5.916;2022-07-22T06:28:54;102037.72;;;21.95;100.00
66495;BME280;53319;51.982;5.916;2022-07-22T06:31:23;102040.19;;;21.86;100.00
66495;BME280;53319;51.982;5.916;2022-07-22T06:33:52;102026.25;;;21.82;100.00
66495;BME280;53319;51.982;5.916;2022-07-22T06:36:23;102030.38;;;21.86;100.00
66495;BME280;53319;51.982;5.916;2022-07-22T06:38:52;102021.94;;;21.92;100.00
66495;BME280;53319;51.982;5.916;2022-07-22T06:41:20;102022.59;;;22.07;100.00
66495;BME280;53319;51.982;5.916;2022-07-22T06:44:18;102021.59;;;21.97;100.00
66495;BME280;53319;51.982;5.916;2022-07-22T06:47:00;102017.84;;;22.00;100.00
66495;BME280;53319;51.982;5.916;2022-07-22T06:49:29;102018.69;;;22.00;100.00
66495;BME280;53319;51.982;5.916;2022-07-22T06:51:58;102020.50;;;22.00;100.00
66495;BME280;53319;51.982;5.916;2022-07-22T06:54:27;102022.59;;;22.07;100.00
66495;BME280;53319;51.982;5.916;2022-07-22T06:56:59;102018.69;;;22.00;100.00
66495;BME280;53319;51.982;5.916;2022-07-22T06:59:34;102023.66;;;22.05;100.00
66495;BME280;53319;51.982;5.916;2022-07-22T07:02:08;102013.88;;;22.05;100.00
66495;BME280;53319;51.982;5.916;2022-07-22T07:04:37;102017.03;;;22.10;100.00
66495;BME280;53319;51.982;5.916;2022-07-22T07:07:07;102014.72;;;22.06;100.00
66495;BME280;53319;51.982;5.916;2022-07-22T07:09:43;102017.38;;;22.06;100.00
66495;BME280;53319;51.982;5.916;2022-07-22T07:12:18;102010.03;;;22.21;100.00
66495;BME280;53319;51.982;5.916;2022-07-22T07:15:16;102008.94;;;22.23;100.00
66495;BME280;53319;51.982;5.916;2022-07-22T07:17:45;102002.38;;;22.16;100.00
66495;BME280;53319;51.982;5.916;2022-07-22T07:20:15;102010.66;;;22.24;100.00
66495;BME280;53319;51.982;5.916;2022-07-22T07:22:45;102014.38;;;22.35;100.00
66495;BME280;53319;51.982;5.916;2022-07-22T07:25:15;102016.84;;;22.25;100.00
66495;BME280;53319;51.982;5.916;2022-07-22T07:27:44;102015.53;;;22.30;100.00
66495;BME280;53319;51.982;5.916;2022-07-22T07:30:18;102020.63;;;22.22;100.00
66495;BME280;53319;51.982;5.916;2022-07-22T07:32:47;102010.63;;;22.13;100.00
66495;BME280;53319;51.982;5.916;2022-07-22T07:35:16;102004.38;;;22.25;100.00
66495;BME280;53319;51.982;5.916;2022-07-22T07:37:45;102000.78;;;22.38;100.00
66495;BME280;53319;51.982;5.916;2022-07-22T07:40:14;102009.16;;;22.33;100.00
66495;BME280;53319;51.982;5.916;2022-07-22T07:42:43;102007.00;;;22.38;100.00
66495;BME280;53319;51.982;5.916;2022-07-22T07:45:12;102010.78;;;22.47;100.00
66495;BME280;53319;51.982;5.916;2022-07-22T07:47:44;102015.88;;;22.50;100.00
66495;BME280;53319;51.982;5.916;2022-07-22T07:50:13;102014.19;;;22.49;100.00
66495;BME280;53319;51.982;5.916;2022-07-22T07:52:44;102020.28;;;22.51;100.00
66495;BME280;53319;51.982;5.916;2022-07-22T07:55:15;102022.72;;;22.54;100.00
66495;BME280;53319;51.982;5.916;2022-07-22T07:57:44;102019.31;;;22.63;100.00
66495;BME280;53319;51.982;5.916;2022-07-22T08:00:17;102018.75;;;22.71;100.00
66495;BME280;53319;51.982;5.916;2022-07-22T08:02:50;102021.66;;;22.68;100.00
66495;BME280;53319;51.982;5.916;2022-07-22T08:05:20;102018.34;;;22.64;100.00
66495;BME280;53319;51.982;5.916;2022-07-22T08:07:49;102018.59;;;22.61;100.00
66495;BME280;53319;51.982;5.916;2022-07-22T08:10:19;102021.78;;;22.78;100.00
66495;BME280;53319;51.982;5.916;2022-07-22T08:13:27;102023.69;;;22.64;100.00
66495;BME280;53319;51.982;5.916;2022-07-22T08:16:14;102015.44;;;22.68;100.00
66495;BME280;53319;51.982;5.916;2022-07-22T08:18:46;102026.31;;;22.89;100.00
66495;BME280;53319;51.982;5.916;2022-07-22T08:21:15;102021.56;;;22.81;100.00
66495;BME280;53319;51.982;5.916;2022-07-22T08:23:55;102020.91;;;23.24;100.00
66495;BME280;53319;51.982;5.916;2022-07-22T08:26:25;102024.63;;;23.10;100.00
66495;BME280;53319;51.982;5.916;2022-07-22T08:28:54;102012.75;;;23.37;100.00
66495;BME280;53319;51.982;5.916;2022-07-22T08:31:23;102023.66;;;23.00;100.00
66495;BME280;53319;51.982;5.916;2022-07-22T08:33:54;102027.16;;;23.01;100.00
66495;BME280;53319;51.982;5.916;2022-07-22T08:36:25;102014.31;;;23.06;100.00
66495;BME280;53319;51.982;5.916;2022-07-22T08:38:54;102007.59;;;22.89;100.00
66495;BME280;53319;51.982;5.916;2022-07-22T08:41:23;102006.25;;;22.83;100.00
66495;BME280;53319;51.982;5.916;2022-07-22T08:43:53;101999.97;;;22.95;100.00
66495;BME280;53319;51.982;5.916;2022-07-22T08:46:22;102006.16;;;23.07;100.00
66495;BME280;53319;51.982;5.916;2022-07-22T08:49:13;102001.00;;;22.70;100.00
66495;BME280;53319;51.982;5.916;2022-07-22T08:51:55;102006.50;;;22.91;100.00
66495;BME280;53319;51.982;5.916;2022-07-22T08:54:27;101996.78;;;22.90;100.00
66495;BME280;53319;51.982;5.916;2022-07-22T08:56:58;101992.06;;;22.94;100.00
66495;BME280;53319;51.982;5.916;2022-07-22T08:59:27;101997.03;;;22.98;100.00
66495;BME280;53319;51.982;5.916;2022-07-22T09:02:01;101993.88;;;23.05;100.00
66495;BME280;53319;51.982;5.916;2022-07-22T09:04:50;101998.97;;;22.96;100.00
66495;BME280;53319;51.982;5.916;2022-07-22T09:07:27;101990.94;;;22.96;100.00
66495;BME280;53319;51.982;5.916;2022-07-22T09:10:02;102002.72;;;23.05;100.00
66495;BME280;53319;51.982;5.916;2022-07-22T09:12:56;102000.69;;;23.09;100.00
66495;BME280;53319;51.982;5.916;2022-07-22T09:15:47;102004.72;;;23.26;100.00
66495;BME280;53319;51.982;5.916;2022-07-22T09:18:46;102005.41;;;22.83;99.97
66495;BME280;53319;51.982;5.916;2022-07-22T09:21:45;101992.06;;;22.94;100.00
66495;BME280;53319;51.982;5.916;2022-07-22T09:24:27;101981.59;;;22.91;97.89
66495;BME280;53319;51.982;5.916;2022-07-22T09:27:22;101989.50;;;23.04;100.00
66495;BME280;53319;51.982;5.916;2022-07-22T09:30:21;101997.16;;;22.86;100.00
66495;BME280;53319;51.982;5.916;2022-07-22T09:32:54;101989.63;;;23.02;100.00
66495;BME280;53319;51.982;5.916;2022-07-22T09:35:44;101988.94;;;23.23;100.00
66495;BME280;53319;51.982;5.916;2022-07-22T09:38:18;101994.75;;;23.39;100.00
66495;BME280;53319;51.982;5.916;2022-07-22T09:40:48;101998.38;;;23.49;99.81
66495;BME280;53319;51.982;5.916;2022-07-22T09:43:19;102000.56;;;23.56;96.62
66495;BME280;53319;51.982;5.916;2022-07-22T09:45:50;102004.94;;;23.45;95.75
66495;BME280;53319;51.982;5.916;2022-07-22T09:48:22;102004.59;;;23.50;91.34
66495;BME280;53319;51.982;5.916;2022-07-22T09:50:53;101999.97;;;23.52;87.64
66495;BME280;53319;51.982;5.916;2022-07-22T09:53:38;101989.38;;;23.62;91.59
66495;BME280;53319;51.982;5.916;2022-07-22T09:56:12;101987.19;;;23.56;83.78
66495;BME280;53319;51.982;5.916;2022-07-22T09:58:42;101986.19;;;23.68;88.53
66495;BME280;53319;51.982;5.916;2022-07-22T10:01:19;101986.50;;;23.86;92.33
66495;BME280;53319;51.982;5.916;2022-07-22T10:03:49;101989.78;;;23.90;90.17
66495;BME280;53319;51.982;5.916;2022-07-22T10:06:20;101991.38;;;23.81;85.37
66495;BME280;53319;51.982;5.916;2022-07-22T10:08:53;101981.06;;;23.88;89.25
66495;BME280;53319;51.982;5.916;2022-07-22T10:11:24;101984.66;;;23.98;87.68
66495;BME280;53319;51.982;5.916;2022-07-22T10:13:54;101977.38;;;24.00;81.43
66495;BME280;53319;51.982;5.916;2022-07-22T10:16:23;101977.91;;;24.15;87.21
66495;BME280;53319;51.982;5.916;2022-07-22T10:18:53;101989.94;;;24.42;85.22
66495;BME280;53319;51.982;5.916;2022-07-22T10:21:31;101987.72;;;24.47;77.23
66495;BME280;53319;51.982;5.916;2022-07-22T10:24:10;101979.25;;;24.42;80.43
66495;BME280;53319;51.982;5.916;2022-07-22T10:26:47;101975.41;;;24.44;82.74
66495;BME280;53319;51.982;5.916;2022-07-22T10:29:27;101971.13;;;24.32;78.99
66495;BME280;53319;51.982;5.916;2022-07-22T10:32:22;101981.63;;;24.24;77.50
66495;BME280;53319;51.982;5.916;2022-07-22T10:38:08;101985.94;;;24.15;80.83
66495;BME280;53319;51.982;5.916;2022-07-22T10:40:51;101973.34;;;24.27;77.53
66495;BME280;53319;51.982;5.916;2022-07-22T10:43:23;101979.00;;;23.69;75.04
66495;BME280;53319;51.982;5.916;2022-07-22T10:45:54;101978.31;;;23.55;76.47
66495;BME280;53319;51.982;5.916;2022-07-22T10:48:25;101978.31;;;23.32;69.25
66495;BME280;53319;51.982;5.916;2022-07-22T10:51:14;101978.91;;;23.59;76.20
66495;BME280;53319;51.982;5.916;2022-07-22T10:53:52;101980.28;;;23.97;78.64
66495;BME280;53319;51.982;5.916;2022-07-22T10:56:27;101973.47;;;23.38;71.55
66495;BME280;53319;51.982;5.916;2022-07-22T10:58:59;101973.06;;;23.65;76.12
66495;BME280;53319;51.982;5.916;2022-07-22T11:01:30;101977.47;;;22.98;70.89
66495;BME280;53319;51.982;5.916;2022-07-22T11:04:11;101978.69;;;23.50;71.65
66495;BME280;53319;51.982;5.916;2022-07-22T11:06:42;101975.38;;;23.58;73.69
66495;BME280;53319;51.982;5.916;2022-07-22T11:09:13;101977.06;;;24.14;79.79
66495;BME280;53319;51.982;5.916;2022-07-22T11:11:47;101971.00;;;24.33;72.05
66495;BME280;53319;51.982;5.916;2022-07-22T11:14:19;101979.81;;;23.92;64.81
66495;BME280;53319;51.982;5.916;2022-07-22T11:16:51;101979.03;;;23.57;66.75
66495;BME280;53319;51.982;5.916;2022-07-22T11:19:22;101977.78;;;23.73;67.70
66495;BME280;53319;51.982;5.916;2022-07-22T11:21:53;101964.94;;;23.99;64.94
66495;BME280;53319;51.982;5.916;2022-07-22T11:24:23;101968.03;;;23.94;67.55
66495;BME280;53319;51.982;5.916;2022-07-22T11:26:56;101961.00;;;24.14;72.65
66495;BME280;53319;51.982;5.916;2022-07-22T11:29:26;101959.63;;;24.41;66.85
66495;BME280;53319;51.982;5.916;2022-07-22T11:31:57;101945.88;;;24.56;67.34
66495;BME280;53319;51.982;5.916;2022-07-22T11:34:28;101948.25;;;24.70;72.32
66495;BME280;53319;51.982;5.916;2022-07-22T11:36:57;101950.56;;;24.75;72.06
66495;BME280;53319;51.982;5.916;2022-07-22T11:39:28;101944.69;;;24.91;76.87
66495;BME280;53319;51.982;5.916;2022-07-22T11:42:00;101946.72;;;25.08;73.30
66495;BME280;53319;51.982;5.916;2022-07-22T11:44:30;101940.66;;;25.16;72.33
66495;BME280;53319;51.982;5.916;2022-07-22T11:47:00;101938.25;;;24.72;68.57
66495;BME280;53319;51.982;5.916;2022-07-22T11:49:31;101945.72;;;24.47;70.05
66495;BME280;53319;51.982;5.916;2022-07-22T11:52:02;101926.78;;;24.60;72.29
66495;BME280;53319;51.982;5.916;2022-07-22T11:54:33;101939.78;;;24.65;73.22
66495;BME280;53319;51.982;5.916;2022-07-22T11:57:05;101934.84;;;24.70;72.93
66495;BME280;53319;51.982;5.916;2022-07-22T11:59:35;101933.16;;;24.69;71.82
66495;BME280;53319;51.982;5.916;2022-07-22T12:02:05;101926.16;;;24.57;70.62
66495;BME280;53319;51.982;5.916;2022-07-22T12:04:36;101928.50;;;24.50;68.89
66495;BME280;53319;51.982;5.916;2022-07-22T12:07:05;101921.59;;;24.47;72.68
66495;BME280;53319;51.982;5.916;2022-07-22T12:09:36;101913.28;;;24.50;75.18
66495;BME280;53319;51.982;5.916;2022-07-22T12:12:10;101916.09;;;24.49;71.43
66495;BME280;53319;51.982;5.916;2022-07-22T12:14:45;101904.84;;;24.55;74.61
66495;BME280;53319;51.982;5.916;2022-07-22T12:17:15;101911.13;;;24.65;72.10
66495;BME280;53319;51.982;5.916;2022-07-22T12:19:43;101909.69;;;24.92;72.41
66495;BME280;53319;51.982;5.916;2022-07-22T12:22:19;101899.97;;;25.01;73.03
66495;BME280;53319;51.982;5.916;2022-07-22T12:24:58;101897.59;;;24.98;70.38
66495;BME280;53319;51.982;5.916;2022-07-22T12:27:30;101895.59;;;25.00;66.74
66495;BME280;53319;51.982;5.916;2022-07-22T12:29:59;101885.22;;;25.16;69.58
66495;BME280;53319;51.982;5.916;2022-07-22T12:32:29;101880.81;;;25.15;69.17
66495;BME280;53319;51.982;5.916;2022-07-22T12:35:00;101880.97;;;25.14;66.71
66495;BME280;53319;51.982;5.916;2022-07-22T12:37:31;101877.72;;;25.20;68.70
66495;BME280;53319;51.982;5.916;2022-07-22T12:40:04;101882.03;;;25.62;68.14
66495;BME280;53319;51.982;5.916;2022-07-22T12:42:38;101882.91;;;26.01;62.82
66495;BME280;53319;51.982;5.916;2022-07-22T12:45:09;101880.22;;;26.01;62.62
66495;BME280;53319;51.982;5.916;2022-07-22T12:47:46;101879.63;;;25.59;61.43
66495;BME280;53319;51.982;5.916;2022-07-22T12:50:22;101884.00;;;25.50;64.57
66495;BME280;53319;51.982;5.916;2022-07-22T12:52:52;101880.63;;;25.48;63.31
66495;BME280;53319;51.982;5.916;2022-07-22T12:55:22;101881.47;;;25.48;63.95
66495;BME280;53319;51.982;5.916;2022-07-22T12:57:54;101885.69;;;25.41;58.13
66495;BME280;53319;51.982;5.916;2022-07-22T13:00:25;101878.09;;;25.85;60.23
66495;BME280;53319;51.982;5.916;2022-07-22T13:02:55;101874.19;;;26.37;60.98
66495;BME280;53319;51.982;5.916;2022-07-22T13:05:25;101871.38;;;26.29;58.54
66495;BME280;53319;51.982;5.916;2022-07-22T13:07:55;101882.97;;;26.29;58.42
66495;BME280;53319;51.982;5.916;2022-07-22T13:10:25;101877.50;;;26.21;58.63